Relevés horaires Semmerzake (Belgique)


Relevés horaires à Semmerzake - Mardi 05 Mai 2026
Heure UTC1 Température [°C] Vent [km/h] Hum. [%] Pres.4 [hPa] Visi. [Km] Nébu. [octa] Préc.5 [mm] Cond.
2m. Res. Ros. Dir.2 Vit. Moy. Raf.3
23:00 10.3 9.9 6.9 NNE 5.6 -- 13.0 79 1009.6(0.2/3h) 14 -- -- --
22:00 10.8 10.5 7.2 N 5.6 -- 13.0 78 1009.7(0.7/3h) 14 -- -- --
21:00 11.0 10.7 7.4 N 5.6 7.4 14.8 78 1009.7(0.7/3h) 14 -- -- --
20:00 11.5 10.9 7.3 N 7.4 -- 13.0 75 1009.2(0.4/3h) 15 -- -- --
19:00 12.3 11.8 7.5 N 7.4 -- 14.8 72 1009(0.2/3h) 14 -- -- --
18:00 13.1 12.8 8.2 N 7.4 -- 16.7 72 1008.8(-0.3/3h) 40 -- -- --
17:00 14.1 13.9 7.4 NNE 7.4 -- 14.8 64 1008.7(-0.9/3h) 35 -- -- --
16:00 14.6 14.2 7.5 N 9.3 -- 16.7 62 1008.7(-1.5/3h) 35 -- -- --
15:00 14.1 14.1 9.6 NNE 5.6 -- 13.0 74 1009.2(-1.1/3h) 35 -- -- --
14:00 12.5 12.4 9.3 NE 5.6 -- 11.1 81 1009.7(-0.7/3h) 30 -- -- --
13:00 12.2 12.1 9.4 NE 5.6 -- 13.0 83 1010.2(-0.4/3h) 26 -- -- --
12:00 11.6 11 9.6 NE 7.4 -- 13.0 88 1010.3(-0.4/3h) 20 -- -- NA
11:00 11.6 11 9.8 NE 7.4 -- 13.0 89 1010.6(-0.4/3h) 21 -- -- --
10:00 11.4 11.2 9.3 N 5.6 -- 11.1 87 1010.7(-0.3/3h) 12 -- -- --
09:00 11.6 11 9.5 NNE 7.4 -- 13.0 87 1010.8(-0.3/3h) 15 -- -- NA
08:00 10.9 10.2 9.4 N 7.4 -- 11.1 90 1011(-0.2/3h) 4.9 -- -- Du brouillard ou du brouillard glacé (plus correctement designé sous le nom de brume) est observé et la visibilité n'est ni inférieure à 5/8 de mille ni supérieure à 6 milles
07:00 10.4 10 9.1 N 5.6 -- 13.0 92 1011.2(-0.3/3h) 4.8 -- -- --
06:00 10.8 10.5 8.8 N 5.6 -- 13.0 87 1011.2(-0.4/3h) 16 -- -- --
05:00 10.8 10.1 9.1 N 7.4 -- 13.0 89 1011.2(-0.4/3h) 8 -- -- --
04:00 11.1 11.1 9.7 N 3.7 -- 11.1 91 1011.5(-0.3/3h) 9 -- -- --
03:00 11.3 11.1 9.9 N 5.6 -- 11.1 91 1011.6(-0.6/3h) 9 -- -- --
02:00 11.5 11.3 10.0 N 5.6 -- 11.1 90 1011.6(-0.9/3h) 10 -- -- --
01:00 11.6 11.4 10.3 N 5.6 -- 11.1 92 1011.7(-1.1/3h) 8 -- -- --
00:00 11.6 11.4 10.5 N 5.6 -- 14.8 93 1012.2(-0.9/3h) 6 -- -- --

1 Coordinated Universal Time. Actuellement il est 04:00 locale et 02:00 UTC.

2 Le vent souffle depuis la direction indiquée vers la direction oposée.

3 Les rafales max. sont disponible 40 min après l'heure du relevé.

4 Pour les stations d'altitude (plus de 600m) le géopotentiel du niveau le plus proche de la pression obligatoire est indiqué.

5 Les stations disposant d'un diffuseur peuvent indiquer "trace". Cela signifie que des précipitations ont touchés le sol mais que la quantité est inférieure à 0.1 mm.

Récapitulatif de la journée
Température [°C] Vent [km/h] Ensoleillement4 [h] Precipitations totale5 [mm] Pression [Hpa]
Min1 Max.2 Moy.3 Max. Min Max.
10.6 15.2 7.4 16.7 0 h 0 min 0 1008.7 1012.2

1 Température minimale relevée entre 18:00 UTC la veille et 18:00 UTC le jour donné.

2 Température maximale relevée entre 06:00 UTC le jour donné et 06:00 UTC le lendemain.

3 Vent moyen de la journée basé sur les relevés horaires.

4 Ensoleillement en heures relevé entre 06:00 UTC la veille et 06:00 UTC le jour donné.

5 Précipitations totales tombées entre 06:00 UTC la jour donné et 06:00 UTC le lendemain.

Graphiques horaires